Birdeye, Arkansas
Current Conditions -  °F | °C
As of 11:00 PM on Monday 22 Dec 2014 (Local Time) from KAWM Reporting Station
Overcast Overcast  
Wind Chill: 57°   Ceiling: 1300
Heat Index: 57°   Visibility: 10mi
Dew Point: 57°   Wind: 3mph
Humidity: 100%   Direction: 220°SW
Pressure: 29.64"   Gusts: NA
Location:  35.38°N, 90.69°W
Report Text: KAWM 230500Z AUTO 22003KT 10SM OVC013 14/14 A2964 RMK AO2 T01390139
Loading
Personal Weather Stations






























Interactive Weather Map New forecast layout! Learn more

10-Day Weather Forecast

Advertisements
Track Severe Weather on mobile